Time;durP1;ratioP1;P1;durP2;ratioP2;P2;SDS_P1;SDS_P2;PMS_P1;PMS_P2;Temp;Humidity;BMP_temperature;BMP_pressure;BME280_temperature;BME280_humidity;BME280_pressure;Samples;Min_cycle;Max_cycle;Signal;HPM_P1;HPM_P2
2021/01/19 00:02:02;;;;;;;77.45;66.68;;;;;;;-1.44;80.52;101503.16;5094528;28;20613;-78
2021/01/19 00:05:07;;;;;;;74.55;63.70;;;;;;;-1.58;80.45;101499.06;5094916;28;20040;-78
2021/01/19 00:08:12;;;;;;;79.00;63.40;;;;;;;-1.54;80.25;101492.81;5082965;28;20486;-78
2021/01/19 00:11:16;;;;;;;76.13;64.43;;;;;;;-1.46;80.32;101493.53;5084767;28;20036;-77
2021/01/19 00:14:20;;;;;;;81.07;66.90;;;;;;;-1.61;79.95;101485.94;5075044;28;20391;-77
2021/01/19 00:17:24;;;;;;;79.75;67.60;;;;;;;-1.64;79.91;101492.13;5074879;28;20048;-78
2021/01/19 00:20:29;;;;;;;72.40;60.95;;;;;;;-1.55;80.54;101494.56;5074567;28;20036;-78
2021/01/19 00:23:33;;;;;;;67.60;58.75;;;;;;;-1.54;79.97;101500.72;5073947;28;20049;-75
2021/01/19 00:26:39;;;;;;;71.40;61.50;;;;;;;-1.69;80.62;101487.84;5083059;28;20040;-76
2021/01/19 00:29:43;;;;;;;69.38;60.42;;;;;;;-1.92;80.45;101488.28;5084998;28;20049;-78
2021/01/19 00:32:47;;;;;;;74.13;63.00;;;;;;;-2.16;81.49;101487.00;5073770;28;20040;-78
2021/01/19 00:35:51;;;;;;;70.43;61.40;;;;;;;-2.16;81.64;101486.13;5084263;28;20040;-78
2021/01/19 00:38:55;;;;;;;75.85;65.18;;;;;;;-2.25;82.15;101496.81;5094530;28;20047;-78
2021/01/19 00:42:00;;;;;;;87.75;69.97;;;;;;;-2.55;82.90;101495.56;5094517;28;20056;-77
2021/01/19 00:45:05;;;;;;;78.43;65.53;;;;;;;-2.41;82.61;101487.44;5094423;28;20052;-79
2021/01/19 00:48:09;;;;;;;76.47;63.28;;;;;;;-2.51;83.02;101483.22;5094344;28;20048;-78
2021/01/19 00:51:13;;;;;;;78.45;66.60;;;;;;;-2.64;83.53;101487.81;5084825;28;20048;-78
2021/01/19 00:54:18;;;;;;;75.85;65.68;;;;;;;-2.45;83.34;101486.63;5093550;28;20044;-78
2021/01/19 00:57:23;;;;;;;81.32;67.47;;;;;;;-2.37;83.08;101503.13;5075112;28;20044;-78
2021/01/19 01:00:28;;;;;;;77.88;66.25;;;;;;;-2.47;83.15;101493.69;5076691;28;20044;-78
2021/01/19 01:03:33;;;;;;;87.53;71.88;;;;;;;-2.58;83.23;101507.88;5093596;28;20391;-78
2021/01/19 01:06:37;;;;;;;99.63;78.53;;;;;;;-2.77;83.25;101496.78;5094302;28;20048;-78
2021/01/19 01:09:41;;;;;;;;;;;;;;;-2.80;83.66;101502.09;5094300;28;20048;-77
2021/01/19 01:12:45;;;;;;;91.43;72.70;;;;;;;-2.80;83.67;101488.94;5084510;28;19916;-77
2021/01/19 01:15:49;;;;;;;91.93;76.30;;;;;;;-2.74;83.60;101502.84;5094040;28;20469;-75
2021/01/19 01:18:53;;;;;;;87.43;71.53;;;;;;;-2.67;83.91;101507.09;5073997;28;20052;-77
2021/01/19 01:21:59;;;;;;;89.95;72.60;;;;;;;-2.68;83.72;101492.25;5084095;28;20403;-78
2021/01/19 01:25:03;;;;;;;78.50;64.10;;;;;;;-2.56;83.43;101492.94;5093910;28;20387;-78
2021/01/19 01:28:07;;;;;;;86.28;69.50;;;;;;;-2.68;83.13;101491.38;5093903;28;20044;-78
2021/01/19 01:31:12;;;;;;;85.95;71.68;;;;;;;-2.74;83.29;101486.25;5082989;28;20045;-75
2021/01/19 01:34:16;;;;;;;88.82;72.40;;;;;;;-2.87;83.87;101485.56;5092773;28;20044;-77
2021/01/19 01:37:20;;;;;;;83.43;71.60;;;;;;;-2.85;84.57;101493.41;5082477;28;20427;-77
2021/01/19 01:40:27;;;;;;;82.97;67.75;;;;;;;-2.74;84.53;101489.72;5073652;28;20040;-78
2021/01/19 01:43:31;;;;;;;84.10;70.00;;;;;;;-2.77;83.96;101483.66;5092728;28;20044;-77
2021/01/19 01:46:36;;;;;;;;;;;;;;;-2.79;84.79;101506.47;5093943;28;20045;-77
2021/01/19 01:49:40;;;;;;;81.07;67.15;;;;;;;-2.89;85.04;101518.00;5093539;28;20270;-77
2021/01/19 01:52:45;;;;;;;77.63;64.93;;;;;;;-2.82;84.63;101506.50;5089844;28;20499;-78
2021/01/19 01:55:50;;;;;;;85.75;69.00;;;;;;;-2.81;84.38;101502.97;5088137;28;20040;-78
2021/01/19 01:58:54;;;;;;;89.85;73.20;;;;;;;-2.95;84.58;101510.19;5080294;28;20045;-77
2021/01/19 02:02:11;;;;;;;95.68;74.68;;;;;;;-2.87;84.42;101511.81;5087108;28;20036;-77
2021/01/19 02:05:15;;;;;;;96.43;74.65;;;;;;;-2.89;84.18;101503.06;5093614;28;20036;-77
2021/01/19 02:08:49;;;;;;;90.03;71.13;;;;;;;-2.94;84.39;101504.91;5093547;28;20047;-77
2021/01/19 02:11:59;;;;;;;;;;;;;;;-2.94;84.66;101514.56;5073882;28;20387;-76
2021/01/19 02:15:07;;;;;;;90.18;69.90;;;;;;;-3.01;84.57;101515.53;5082147;28;20307;-78
2021/01/19 02:18:47;;;;;;;83.65;68.28;;;;;;;-3.08;84.64;101512.09;5090198;28;20479;-78
2021/01/19 02:22:17;;;;;;;85.22;67.05;;;;;;;-3.02;84.28;101517.28;5100263;28;20040;-79
2021/01/19 02:25:27;;;;;;;78.90;66.50;;;;;;;-2.99;84.30;101521.63;5095778;28;20036;-79
2021/01/19 02:28:58;;;;;;;79.10;66.57;;;;;;;-3.06;84.52;101505.06;5097049;28;20040;-79
2021/01/19 02:32:24;;;;;;;81.28;66.60;;;;;;;-3.03;84.46;101512.03;5097045;28;20132;-77
2021/01/19 02:35:48;;;;;;;84.10;67.63;;;;;;;-3.08;84.63;101503.34;5081350;28;20032;-78
2021/01/19 02:38:52;;;;;;;90.78;72.53;;;;;;;-3.07;84.81;101512.97;5088157;28;20044;-78
2021/01/19 02:41:57;;;;;;;83.57;69.03;;;;;;;-3.05;84.34;101504.19;5081981;28;20036;-77
2021/01/19 02:45:05;;;;;;;86.40;65.65;;;;;;;-3.11;84.93;101506.88;5076392;28;20040;-79
2021/01/19 02:48:10;;;;;;;88.85;70.35;;;;;;;-3.31;85.37;101504.53;5075302;28;20059;-76
2021/01/19 02:51:14;;;;;;;79.95;65.10;;;;;;;-3.23;85.45;101511.47;5076670;28;20040;-77
2021/01/19 02:54:19;;;;;;;83.82;68.47;;;;;;;-3.28;85.80;101486.13;5076416;28;20388;-78
2021/01/19 02:58:06;;;;;;;82.50;66.53;;;;;;;-3.26;85.66;101495.75;5079002;28;20044;-77
2021/01/19 03:01:22;;;;;;;76.45;63.58;;;;;;;-3.16;85.81;101494.75;5076241;28;20052;-77
2021/01/19 03:04:29;;;;;;;81.03;64.32;;;;;;;-3.16;85.87;101500.00;5083550;28;20422;-77
2021/01/19 03:07:38;;;;;;;79.97;64.57;;;;;;;-3.24;85.78;101483.47;5096254;28;20051;-80
2021/01/19 03:10:42;;;;;;;80.68;67.13;;;;;;;-3.31;85.72;101480.06;5096588;28;20044;-78
2021/01/19 03:13:48;;;;;;;79.85;66.50;;;;;;;-3.26;85.17;101501.88;5096239;28;20044;-78
2021/01/19 03:17:05;;;;;;;81.95;66.25;;;;;;;-3.31;85.69;101478.28;5085181;28;20052;-77
2021/01/19 03:20:12;;;;;;;78.57;64.78;;;;;;;-3.40;85.51;101478.41;5087252;28;20036;-76
2021/01/19 03:23:16;;;;;;;74.60;61.50;;;;;;;-3.40;85.58;101490.66;5074912;28;20041;-78
2021/01/19 03:26:21;;;;;;;70.32;60.08;;;;;;;-3.46;85.46;101486.38;5086258;28;20040;-79
2021/01/19 03:29:25;;;;;;;64.18;54.90;;;;;;;-3.49;85.55;101482.91;5075072;28;20052;-77
2021/01/19 03:32:30;;;;;;;65.30;56.40;;;;;;;-3.50;85.12;101476.78;5075376;28;20041;-79
2021/01/19 03:35:39;;;;;;;65.22;53.13;;;;;;;-3.42;84.75;101479.31;5083684;28;20043;-79
2021/01/19 03:38:42;;;;;;;65.13;55.92;;;;;;;-3.61;84.54;101467.34;5094615;28;20399;-78
2021/01/19 03:41:47;;;;;;;64.28;53.67;;;;;;;-3.59;84.44;101463.81;5090982;28;20040;-78
2021/01/19 03:44:51;;;;;;;65.72;55.10;;;;;;;-3.75;84.68;101466.63;5075438;28;20044;-78
2021/01/19 03:47:56;;;;;;;69.45;57.90;;;;;;;-3.84;85.02;101470.22;5084497;28;20044;-77
2021/01/19 03:51:00;;;;;;;67.40;56.60;;;;;;;-3.84;85.54;101461.47;5095526;28;20471;-77
2021/01/19 03:54:05;;;;;;;68.07;56.90;;;;;;;-3.73;85.40;101473.59;5095704;28;20040;-78
2021/01/19 03:57:09;;;;;;;70.40;56.60;;;;;;;-3.75;85.38;101477.97;5089554;28;20048;-78
2021/01/19 04:00:15;;;;;;;78.43;61.13;;;;;;;-3.91;86.01;101480.78;5079990;28;20048;-78
2021/01/19 04:03:18;;;;;;;72.72;60.05;;;;;;;-3.93;85.80;101486.06;5075277;28;20040;-76
2021/01/19 04:06:22;;;;;;;71.68;59.22;;;;;;;-3.95;86.08;101475.56;5074809;28;20044;-77
2021/01/19 04:09:26;;;;;;;74.68;60.38;;;;;;;-4.04;86.18;101478.31;5074711;28;20049;-77
2021/01/19 04:12:30;;;;;;;;;;;;;;;-4.10;86.58;101482.75;5074507;28;20048;-79
2021/01/19 04:15:34;;;;;;;75.97;60.95;;;;;;;-4.18;86.70;101472.34;5086940;28;20298;-77
2021/01/19 04:18:38;;;;;;;78.35;61.05;;;;;;;-4.15;86.68;101482.78;5094877;28;20043;-78
2021/01/19 04:21:42;;;;;;;75.43;60.65;;;;;;;-4.23;87.10;101483.75;5082502;28;20443;-77
2021/01/19 04:24:47;;;;;;;76.75;61.28;;;;;;;-4.10;87.10;101488.00;5080006;28;20052;-77
2021/01/19 04:27:51;;;;;;;81.45;63.63;;;;;;;-4.19;86.92;101485.44;5093946;28;20048;-76
2021/01/19 04:30:56;;;;;;;84.93;64.75;;;;;;;-4.29;86.95;101479.44;5074467;28;20044;-79
2021/01/19 04:34:02;;;;;;;87.13;64.50;;;;;;;-4.19;87.43;101477.59;5074675;28;20040;-78
2021/01/19 04:37:06;;;;;;;173.27;66.90;;;;;;;-4.15;87.05;101481.94;5093172;28;20048;-79
2021/01/19 04:40:11;;;;;;;88.32;66.13;;;;;;;-4.15;87.45;101488.03;5080694;28;20040;-78
2021/01/19 04:43:17;;;;;;;83.65;64.18;;;;;;;-4.05;87.73;101497.53;5076221;28;20041;-77
2021/01/19 04:46:22;;;;;;;90.50;69.07;;;;;;;-4.09;88.00;101494.97;5083755;28;20036;-79
2021/01/19 04:49:28;;;;;;;106.18;68.43;;;;;;;-4.11;88.34;101496.75;5084679;28;20483;-77
2021/01/19 04:52:33;;;;;;;90.80;69.57;;;;;;;-4.20;88.41;101488.97;5074201;28;20040;-78
2021/01/19 04:55:53;;;;;;;85.20;64.80;;;;;;;-4.08;88.46;101494.09;5090419;28;20044;-77
2021/01/19 04:58:58;;;;;;;80.90;61.75;;;;;;;-3.97;88.07;101492.22;5093572;28;20043;-79
2021/01/19 05:02:14;;;;;;;78.50;60.25;;;;;;;-3.84;88.04;101495.56;5084725;28;20037;-79
2021/01/19 05:05:36;;;;;;;85.22;62.63;;;;;;;-3.79;87.85;101510.38;5073620;28;20045;-78
2021/01/19 05:08:43;;;;;;;83.15;63.33;;;;;;;-3.80;88.17;101524.38;5091687;28;20040;-78
2021/01/19 05:11:50;;;;;;;90.45;67.53;;;;;;;-3.79;88.40;101505.13;5086176;28;20472;-79
2021/01/19 05:14:57;;;;;;;85.78;64.32;;;;;;;-3.69;88.08;101506.78;5074127;28;20040;-79
2021/01/19 05:18:01;;;;;;;85.88;64.85;;;;;;;-3.56;88.61;101516.25;5073871;28;20049;-78
2021/01/19 05:21:07;;;;;;;82.45;62.72;;;;;;;-3.47;88.09;101512.63;5081498;28;20040;-77
2021/01/19 05:24:11;;;;;;;78.47;60.33;;;;;;;-3.50;87.86;101513.53;5081066;28;20052;-78
2021/01/19 05:27:15;;;;;;;103.03;61.63;;;;;;;-3.58;87.96;101510.13;5086967;28;20041;-76
2021/01/19 05:30:21;;;;;;;78.13;59.70;;;;;;;-3.67;88.01;101514.63;5073928;28;20488;-79
2021/01/19 05:33:25;;;;;;;83.35;61.83;;;;;;;-3.80;88.07;101508.63;5072585;28;20033;-79
2021/01/19 05:36:41;;;;;;;80.47;60.70;;;;;;;-3.85;88.30;101520.09;5073627;28;20040;-79
2021/01/19 05:39:48;;;;;;;78.85;61.50;;;;;;;-3.78;88.25;101498.16;5073553;28;20044;-78
2021/01/19 05:42:53;;;;;;;80.28;58.38;;;;;;;-3.80;87.79;101508.63;5073610;28;20407;-79
2021/01/19 05:45:57;;;;;;;73.55;57.63;;;;;;;-3.98;87.56;101498.38;5091673;28;20476;-78
2021/01/19 05:49:02;;;;;;;71.55;56.95;;;;;;;-3.74;87.73;101500.72;5078285;28;20045;-78
2021/01/19 05:52:12;;;;;;;73.30;57.78;;;;;;;-3.85;87.06;101515.69;5073544;28;20049;-78
2021/01/19 05:55:25;;;;;;;77.65;59.17;;;;;;;-3.92;86.57;101502.66;5073769;28;20044;-78
2021/01/19 05:58:34;;;;;;;;;;;;;;;-3.96;86.68;101510.56;5074013;28;20036;-77
2021/01/19 06:01:38;;;;;;;73.72;56.33;;;;;;;-4.01;86.94;101501.00;5095680;28;20290;-79
2021/01/19 06:04:49;;;;;;;76.82;58.65;;;;;;;-4.00;86.50;101503.59;5096736;28;20044;-77
2021/01/19 06:07:55;;;;;;;88.60;64.20;;;;;;;-3.95;86.53;101508.81;5077112;28;20045;-77
2021/01/19 06:11:07;;;;;;;74.47;57.50;;;;;;;-3.91;85.73;101504.41;5077170;28;20048;-77
2021/01/19 06:14:21;;;;;;;72.57;56.10;;;;;;;-3.91;85.73;101520.13;5076267;28;20044;-77
2021/01/19 06:17:26;;;;;;;73.75;55.78;;;;;;;-3.93;85.15;101512.28;5076280;28;20040;-79
2021/01/19 06:20:40;;;;;;;75.70;56.45;;;;;;;-3.93;85.01;101516.66;5077127;28;20045;-76
2021/01/19 06:23:46;;;;;;;69.40;54.42;;;;;;;-3.86;85.21;101527.06;5076419;28;20483;-78
2021/01/19 06:26:51;;;;;;;68.30;53.72;;;;;;;-3.87;84.41;101527.06;5076893;28;20044;-75
2021/01/19 06:29:58;;;;;;;66.00;54.33;;;;;;;-3.91;84.61;101518.38;5079673;28;20040;-77
2021/01/19 06:33:03;;;;;;;64.38;51.92;;;;;;;-3.78;84.59;101527.00;5081504;28;20036;-78
2021/01/19 06:36:09;;;;;;;64.28;51.45;;;;;;;-3.82;84.08;101526.16;5097020;28;20044;-77
2021/01/19 06:39:26;;;;;;;66.72;52.80;;;;;;;-3.81;84.15;101520.03;5096758;28;20048;-77
2021/01/19 06:42:32;;;;;;;68.03;52.13;;;;;;;-3.78;83.95;101521.75;5095597;28;20040;-77
2021/01/19 06:45:36;;;;;;;62.05;52.22;;;;;;;-3.73;83.89;101538.31;5095931;28;20036;-76
2021/01/19 06:48:42;;;;;;;67.03;51.90;;;;;;;-3.65;83.97;101528.56;5096582;28;20391;-77
2021/01/19 06:51:54;;;;;;;66.85;51.28;;;;;;;-3.68;83.77;101529.47;5076308;28;20037;-78
2021/01/19 06:55:05;;;;;;;62.58;50.88;;;;;;;-3.72;83.87;101522.53;5084544;28;20040;-77
2021/01/19 06:58:17;;;;;;;59.35;48.50;;;;;;;-3.60;83.20;101543.38;5094222;28;20468;-76
2021/01/19 07:01:28;;;;;;;63.00;50.72;;;;;;;-3.56;82.82;101539.88;5081108;28;20032;-80
2021/01/19 07:04:46;;;;;;;68.35;51.72;;;;;;;-3.96;83.94;101538.53;5084548;28;20391;-76
2021/01/19 07:08:20;;;;;;;69.97;56.35;;;;;;;-3.84;85.21;101540.16;5082385;28;20040;-81
2021/01/19 07:12:07;;;;;;;67.10;52.13;;;;;;;-3.56;84.92;101537.25;5089445;28;20048;-81
2021/01/19 07:15:19;;;;;;;61.00;48.38;;;;;;;-3.46;84.17;101524.88;5071055;28;20496;-77
2021/01/19 07:18:42;;;;;;;64.25;51.20;;;;;;;-3.25;84.25;101539.47;5059788;28;20044;-79
2021/01/19 07:24:26;;;;;;;55.15;47.40;;;;;;;-3.14;83.49;101540.22;5061977;28;20055;-79
2021/01/19 07:27:32;;;;;;;57.80;45.83;;;;;;;-3.04;82.88;101547.97;5048038;28;20037;-77
2021/01/19 07:30:39;;;;;;;55.13;45.35;;;;;;;-2.92;82.51;101542.53;5072780;28;20040;-79
2021/01/19 07:33:45;;;;;;;52.78;44.88;;;;;;;-2.70;81.95;101535.22;5072705;28;20056;-79
2021/01/19 07:36:54;;;;;;;53.80;44.72;;;;;;;-2.56;81.16;101541.13;5073239;28;20045;-79
2021/01/19 07:39:59;;;;;;;58.65;44.30;;;;;;;-2.47;80.88;101543.63;5072928;28;20447;-80
2021/01/19 07:43:13;;;;;;;51.72;44.30;;;;;;;-2.42;80.28;101552.28;5069079;28;20515;-78
2021/01/19 07:46:28;;;;;;;55.75;44.28;;;;;;;-2.22;79.82;101571.22;5073014;28;20451;-79
2021/01/19 07:49:32;;;;;;;50.28;43.05;;;;;;;-1.85;79.06;101554.84;5090812;28;20052;-79
2021/01/19 07:52:39;;;;;;;52.70;42.58;;;;;;;-1.54;77.58;101548.09;5095177;28;20048;-80
2021/01/19 07:55:46;;;;;;;46.58;40.92;;;;;;;-1.13;75.30;101548.13;5095040;28;20479;-79
2021/01/19 07:58:50;;;;;;;46.92;39.90;;;;;;;-0.95;73.85;101538.97;5092603;28;20056;-77
2021/01/19 08:01:58;;;;;;;41.35;36.85;;;;;;;-0.06;72.69;101545.63;5092563;28;20032;-77
2021/01/19 08:05:06;;;;;;;38.70;33.80;;;;;;;1.51;67.98;101542.84;5092383;28;20044;-77
2021/01/19 08:08:17;;;;;;;37.55;32.53;;;;;;;2.57;62.90;101544.50;5092393;28;20071;-77
2021/01/19 08:11:22;;;;;;;32.75;29.25;;;;;;;4.16;57.60;101562.13;5092367;28;20070;-78
2021/01/19 08:14:33;;;;;;;34.63;30.23;;;;;;;5.50;52.61;101555.13;5095051;28;20047;-77
2021/01/19 08:17:37;;;;;;;33.60;30.35;;;;;;;6.91;48.66;101544.31;5094159;28;20063;-75
2021/01/19 08:20:42;;;;;;;35.95;32.10;;;;;;;8.40;44.09;101548.25;5094894;28;20051;-75
2021/01/19 08:23:46;;;;;;;31.35;28.23;;;;;;;8.67;43.13;101552.88;5092862;28;20402;-78
2021/01/19 08:26:51;;;;;;;30.38;27.48;;;;;;;9.63;40.65;101549.41;5094834;28;20062;-75
2021/01/19 08:29:55;;;;;;;31.80;28.60;;;;;;;10.58;38.87;101538.56;5094691;28;20055;-74
2021/01/19 08:33:00;;;;;;;28.90;26.00;;;;;;;11.70;36.64;101536.78;5094669;28;20044;-75
2021/01/19 08:36:06;;;;;;;30.25;27.25;;;;;;;10.91;36.93;101536.25;5094636;28;20463;-77
2021/01/19 08:39:11;;;;;;;29.88;26.77;;;;;;;12.23;35.49;101528.22;5093791;28;20048;-75
2021/01/19 08:42:16;;;;;;;29.15;26.27;;;;;;;11.21;37.54;101514.41;5094604;28;20040;-76
2021/01/19 08:45:25;;;;;;;31.92;26.80;;;;;;;12.86;35.63;101508.06;5094579;28;20040;-75
2021/01/19 08:48:31;;;;;;;28.63;25.83;;;;;;;15.21;30.63;101502.53;5093587;28;20048;-75
2021/01/19 08:51:36;;;;;;;27.48;24.83;;;;;;;18.23;26.88;101500.50;5094608;28;20410;-75
2021/01/19 08:54:40;;;;;;;27.73;25.23;;;;;;;19.97;24.63;101507.31;5094294;28;20403;-75
2021/01/19 08:57:55;;;;;;;26.25;23.75;;;;;;;22.02;22.40;101503.91;5094110;28;20048;-75
2021/01/19 09:01:03;;;;;;;25.77;23.40;;;;;;;22.06;22.04;101497.03;5093921;28;20422;-75
2021/01/19 09:04:07;;;;;;;26.15;23.58;;;;;;;22.71;21.23;101496.53;5093274;28;20394;-75
2021/01/19 09:07:12;;;;;;;28.63;25.92;;;;;;;22.52;20.88;101500.59;5093985;28;20040;-76
2021/01/19 09:10:23;;;;;;;25.92;23.42;;;;;;;23.12;20.63;101498.69;5093335;28;20039;-76
2021/01/19 09:13:31;;;;;;;28.23;25.63;;;;;;;19.11;25.29;101502.22;5093484;28;20040;-76
2021/01/19 09:16:37;;;;;;;34.10;28.98;;;;;;;18.60;25.85;101495.75;5092916;28;20044;-76
2021/01/19 09:19:42;;;;;;;29.35;26.40;;;;;;;22.41;21.77;101490.09;5094078;28;20044;-77
2021/01/19 09:22:47;;;;;;;31.80;28.45;;;;;;;20.54;23.62;101499.25;5093500;28;20410;-76
2021/01/19 09:26:02;;;;;;;31.77;28.45;;;;;;;17.79;26.83;101501.41;5093869;28;20040;-77
2021/01/19 09:29:06;;;;;;;30.67;27.40;;;;;;;17.51;27.90;101481.53;5092970;28;20052;-76
2021/01/19 09:32:12;;;;;;;31.08;28.20;;;;;;;16.89;28.29;101493.97;5093039;28;20036;-76
2021/01/19 09:35:18;;;;;;;32.33;29.38;;;;;;;15.91;30.46;101502.44;5096276;28;20378;-76
2021/01/19 09:38:24;;;;;;;34.97;31.48;;;;;;;13.00;34.40;101495.19;5097877;28;20047;-77
2021/01/19 09:41:28;;;;;;;40.35;33.20;;;;;;;9.91;41.15;101499.31;5097759;28;20044;-77
2021/01/19 09:44:33;;;;;;;38.95;34.78;;;;;;;7.73;47.02;101505.84;5097725;28;20055;-77
2021/01/19 09:47:41;;;;;;;45.80;38.60;;;;;;;6.17;51.78;101512.72;5097909;28;20410;-76
2021/01/19 09:50:45;;;;;;;49.58;40.30;;;;;;;5.16;55.96;101515.94;5097645;28;20055;-76
2021/01/19 09:53:57;;;;;;;44.50;39.58;;;;;;;4.73;58.52;101516.19;5097531;28;20048;-76
2021/01/19 09:57:01;;;;;;;45.05;40.45;;;;;;;3.74;61.24;101509.00;5096537;28;20410;-77
2021/01/19 10:00:08;;;;;;;46.47;41.58;;;;;;;3.33;63.53;101501.84;5097472;28;20055;-76
2021/01/19 10:03:20;;;;;;;47.83;42.90;;;;;;;3.35;64.35;101502.66;5097412;28;20071;-76
2021/01/19 10:06:26;;;;;;;47.17;42.05;;;;;;;3.14;64.96;101491.94;5097365;28;20067;-75
2021/01/19 10:09:31;;;;;;;46.47;41.33;;;;;;;3.07;65.75;101503.72;5097251;28;20489;-76
2021/01/19 10:12:36;;;;;;;47.63;42.15;;;;;;;2.89;65.98;101506.22;5097279;28;20063;-76
2021/01/19 10:15:41;;;;;;;44.53;39.50;;;;;;;3.11;65.20;101502.66;5097238;28;20051;-78
2021/01/19 10:18:48;;;;;;;49.35;39.83;;;;;;;2.64;67.25;101514.22;5097160;28;20059;-77
2021/01/19 10:21:57;;;;;;;44.70;39.22;;;;;;;2.83;66.78;101502.00;5097131;28;20051;-77
2021/01/19 10:25:06;;;;;;;46.80;40.25;;;;;;;2.70;67.51;101498.09;5096250;28;20043;-77
2021/01/19 10:28:10;;;;;;;51.55;42.53;;;;;;;2.52;68.45;101498.75;5096951;28;20047;-78
2021/01/19 10:31:20;;;;;;;53.55;44.72;;;;;;;2.50;69.14;101493.53;5096812;28;20490;-75
2021/01/19 10:34:26;;;;;;;61.05;46.42;;;;;;;2.50;69.95;101500.59;5096756;28;20055;-75
2021/01/19 10:37:36;;;;;;;65.93;54.58;;;;;;;2.22;71.12;101495.41;5096712;28;20051;-77
2021/01/19 10:40:45;;;;;;;69.25;53.17;;;;;;;2.44;70.56;101496.41;5096404;28;20043;-77
2021/01/19 10:43:51;;;;;;;72.57;53.17;;;;;;;2.29;71.11;101496.97;5096612;28;20055;-77
2021/01/19 10:47:02;;;;;;;66.78;50.80;;;;;;;2.31;70.29;101505.72;5095324;28;20043;-77
2021/01/19 10:50:31;;;;;;;65.18;51.40;;;;;;;2.52;69.62;101501.41;5096531;28;20055;-77
2021/01/19 10:53:35;;;;;;;67.75;50.05;;;;;;;2.39;69.23;101500.13;5096553;28;20047;-77
2021/01/19 10:56:47;;;;;;;64.35;48.70;;;;;;;2.06;69.74;101488.06;5096061;28;20071;-77
2021/01/19 10:59:51;;;;;;;62.78;47.20;;;;;;;2.30;69.96;101493.38;5095519;28;20047;-78
2021/01/19 11:02:57;;;;;;;52.10;42.03;;;;;;;2.40;69.04;101485.94;5096244;28;20051;-77
2021/01/19 11:06:01;;;;;;;56.17;43.10;;;;;;;2.28;69.61;101483.75;5096256;28;20043;-78
2021/01/19 11:09:06;;;;;;;57.53;44.13;;;;;;;2.26;69.73;101480.28;5095276;28;20150;-74
2021/01/19 11:12:10;;;;;;;61.13;45.15;;;;;;;1.76;71.22;101469.69;5096081;28;20063;-77
2021/01/19 11:15:15;;;;;;;57.30;44.40;;;;;;;1.41;72.78;101475.25;5096015;28;20050;-77
2021/01/19 11:18:20;;;;;;;62.58;47.33;;;;;;;1.55;74.01;101465.13;5096057;28;20051;-75
2021/01/19 11:21:24;;;;;;;62.53;47.60;;;;;;;1.79;73.21;101464.28;5095843;28;20055;-76
2021/01/19 11:24:28;;;;;;;65.03;47.22;;;;;;;1.83;72.85;101462.38;5095085;28;20536;-79
2021/01/19 11:27:33;;;;;;;64.78;48.85;;;;;;;1.72;73.48;101462.78;5095505;28;20367;-77
2021/01/19 11:30:37;;;;;;;61.35;47.17;;;;;;;1.85;73.21;101458.78;5095617;28;20055;-76
2021/01/19 11:33:42;;;;;;;63.80;47.97;;;;;;;2.11;73.43;101454.34;5094457;28;20055;-76
2021/01/19 11:36:46;;;;;;;69.93;51.17;;;;;;;2.18;73.34;101451.44;5095482;28;20114;-77
2021/01/19 11:39:50;;;;;;;64.97;49.50;;;;;;;2.31;73.03;101441.25;5094435;28;20051;-78
2021/01/19 11:42:55;;;;;;;65.07;50.50;;;;;;;2.44;72.26;101439.91;5095750;28;20051;-77
2021/01/19 11:46:00;;;;;;;65.40;49.83;;;;;;;2.30;72.87;101436.88;5094681;28;20047;-78
2021/01/19 11:49:06;;;;;;;64.85;48.85;;;;;;;2.27;72.83;101429.91;5095241;28;20055;-78
2021/01/19 11:52:11;;;;;;;66.03;50.28;;;;;;;2.42;72.10;101434.63;5095352;28;20047;-79
2021/01/19 11:55:17;;;;;;;60.88;46.60;;;;;;;2.42;72.24;101428.50;5095215;28;20051;-79
2021/01/19 11:58:22;;;;;;;56.65;45.35;;;;;;;2.58;72.61;101425.22;5093483;28;20063;-77
2021/01/19 12:01:27;;;;;;;57.45;46.05;;;;;;;2.68;72.11;101419.53;5095145;28;20051;-77
2021/01/19 12:04:31;;;;;;;58.00;44.90;;;;;;;2.69;72.17;101413.34;5095095;28;20055;-77
2021/01/19 12:07:39;;;;;;;60.08;45.63;;;;;;;2.68;71.43;101415.13;5094243;28;20407;-78
2021/01/19 12:10:44;;;;;;;52.75;41.65;;;;;;;2.57;71.35;101412.00;5094879;28;20379;-78
2021/01/19 12:13:49;;;;;;;60.78;42.72;;;;;;;2.66;71.25;101416.97;5095250;28;20502;-77
2021/01/19 12:16:54;;;;;;;55.42;42.67;;;;;;;2.80;71.09;101409.34;5082902;28;20062;-76
2021/01/19 12:19:58;;;;;;;62.63;45.55;;;;;;;2.78;72.20;101405.88;5074583;28;20048;-79
2021/01/19 12:23:04;;;;;;;62.35;48.38;;;;;;;2.73;72.53;101410.50;5074217;28;20060;-77
2021/01/19 12:26:08;;;;;;;62.65;49.65;;;;;;;2.67;73.06;101391.34;5074599;28;20475;-77
2021/01/19 12:29:13;;;;;;;63.05;47.55;;;;;;;2.66;73.66;101382.50;5079468;28;20039;-84
2021/01/19 12:32:17;;;;;;;66.47;49.15;;;;;;;2.60;73.81;101380.97;5094007;28;20042;-77
2021/01/19 12:35:22;;;;;;;63.53;49.90;;;;;;;2.78;73.79;101379.38;5074423;28;20414;-76
2021/01/19 12:38:27;;;;;;;65.70;50.47;;;;;;;2.71;74.63;101369.06;5080096;28;20043;-76
2021/01/19 12:41:33;;;;;;;68.90;53.10;;;;;;;2.68;75.10;101366.53;5083860;28;20047;-77
2021/01/19 12:44:37;;;;;;;65.30;53.15;;;;;;;2.59;75.51;101365.97;5087146;28;20048;-76
2021/01/19 12:47:42;;;;;;;65.00;52.80;;;;;;;2.63;76.31;101361.41;5074438;28;20063;-76
2021/01/19 12:50:46;;;;;;;62.13;48.88;;;;;;;2.75;76.24;101345.03;5085585;28;20051;-75
2021/01/19 12:53:50;;;;;;;59.25;48.75;;;;;;;2.68;76.03;101354.16;5081326;28;20043;-74
2021/01/19 12:56:55;;;;;;;59.70;48.25;;;;;;;2.78;75.54;101347.56;5094369;28;20395;-75
2021/01/19 12:59:59;;;;;;;60.72;47.55;;;;;;;2.85;75.31;101346.41;5085317;28;20047;-79
2021/01/19 13:03:04;;;;;;;58.42;45.67;;;;;;;2.95;74.83;101354.84;5084895;28;20047;-76
2021/01/19 13:06:10;;;;;;;58.10;46.25;;;;;;;3.05;74.46;101351.75;5073961;28;20051;-78
2021/01/19 13:09:14;;;;;;;59.50;47.72;;;;;;;2.99;73.89;101337.88;5072863;28;20379;-77
2021/01/19 13:12:21;;;;;;;59.30;45.35;;;;;;;2.90;73.59;101336.47;5082365;28;20438;-77
2021/01/19 13:15:25;;;;;;;51.95;40.85;;;;;;;3.08;73.13;101327.78;5072846;28;20052;-76
2021/01/19 13:18:30;;;;;;;51.60;43.38;;;;;;;3.20;72.73;101332.56;5073721;28;20067;-78
2021/01/19 13:21:35;;;;;;;61.13;46.22;;;;;;;3.23;72.88;101319.13;5078617;28;20055;-75
2021/01/19 13:24:39;;;;;;;59.05;45.30;;;;;;;3.28;73.01;101317.16;5093843;28;20048;-78
2021/01/19 13:27:44;;;;;;;80.40;44.28;;;;;;;3.35;72.88;101328.38;5093913;28;20483;-74
2021/01/19 13:30:50;;;;;;;57.72;45.33;;;;;;;3.47;73.74;101337.59;5093271;28;20055;-76
2021/01/19 13:33:54;;;;;;;57.03;44.17;;;;;;;3.59;73.03;101335.28;5093815;28;20478;-77
2021/01/19 13:36:58;;;;;;;60.22;44.47;;;;;;;3.70;72.41;101334.84;5093200;28;20047;-76
2021/01/19 13:40:04;;;;;;;57.22;45.03;;;;;;;3.87;72.17;101326.97;5093743;28;20055;-76
2021/01/19 13:43:09;;;;;;;55.50;45.33;;;;;;;3.97;72.33;101322.97;5093665;28;20055;-76
2021/01/19 13:46:15;;;;;;;61.05;46.45;;;;;;;4.16;72.02;101321.19;5081482;28;20047;-77
2021/01/19 13:49:20;;;;;;;55.42;44.33;;;;;;;4.17;71.42;101308.78;5082402;28;20072;-78
2021/01/19 13:52:24;;;;;;;57.08;43.92;;;;;;;4.20;71.17;101317.47;5073032;28;20051;-76
2021/01/19 13:55:29;;;;;;;53.40;43.38;;;;;;;4.30;70.60;101308.13;5078327;28;20051;-79
2021/01/19 13:58:34;;;;;;;59.03;45.38;;;;;;;4.23;70.38;101317.31;5088529;28;20052;-75
2021/01/19 14:01:45;;;;;;;54.08;41.97;;;;;;;4.24;69.89;101321.72;5077740;28;20067;-75
2021/01/19 14:04:50;;;;;;;52.33;39.78;;;;;;;4.40;68.47;101321.84;5093143;28;20051;-77
2021/01/19 14:07:54;;;;;;;50.67;40.47;;;;;;;4.46;67.96;101327.75;5093258;28;20351;-81
2021/01/19 14:10:59;;;;;;;55.25;44.30;;;;;;;4.32;69.91;101330.19;5086550;28;20052;-80
2021/01/19 14:14:09;;;;;;;56.97;44.15;;;;;;;4.32;71.09;101327.50;5078027;28;20040;-79
2021/01/19 14:17:14;;;;;;;57.08;44.97;;;;;;;4.36;71.39;101331.78;5079855;28;20407;-80
2021/01/19 14:20:18;;;;;;;59.30;47.42;;;;;;;4.29;72.07;101335.66;5078713;28;20047;-74